Time;durP1;ratioP1;P1;durP2;ratioP2;P2;SDS_P1;SDS_P2;PMS_P1;PMS_P2;Temp;Humidity;BMP_temperature;BMP_pressure;BME280_temperature;BME280_humidity;BME280_pressure;Samples;Min_cycle;Max_cycle;Signal;HPM_P1;HPM_P2
2021/06/24 00:00:08;;;;;;;5.30;2.43;;;20.40;99.90;;;;;;4980555;28;20456;-79
2021/06/24 00:02:37;;;;;;;3.90;3.60;;;20.40;1.00;;;;;;4970132;28;20471;-79
2021/06/24 00:05:07;;;;;;;3.70;3.37;;;20.40;99.90;;;;;;4967245;28;20451;-79
2021/06/24 00:07:35;;;;;;;4.63;4.33;;;20.50;99.90;;;;;;4969817;28;20463;-80
2021/06/24 00:10:05;;;;;;;5.50;4.33;;;20.50;99.90;;;;;;4958540;28;20498;-79
2021/06/24 00:12:33;;;;;;;4.30;4.00;;;20.40;1.00;;;;;;4968217;28;21343;-80
2021/06/24 00:15:03;;;;;;;4.00;3.70;;;20.40;99.90;;;;;;4967552;28;20469;-80
2021/06/24 00:17:31;;;;;;;4.53;3.77;;;20.40;99.90;;;;;;4970701;28;20459;-79
2021/06/24 00:20:00;;;;;;;4.53;3.83;;;20.30;14.30;;;;;;4970411;28;21022;-81
2021/06/24 00:22:28;;;;;;;3.90;3.60;;;20.30;99.90;;;;;;4972756;28;20463;-80
2021/06/24 00:24:56;;;;;;;4.07;3.77;;;20.50;1.00;;;;;;4969507;28;20932;-81
2021/06/24 00:27:24;;;;;;;4.50;4.10;;;20.40;1.00;;;;;;4971979;28;21030;-79
2021/06/24 00:29:53;;;;;;;3.83;3.60;;;20.40;1.00;;;;;;4962854;28;20754;-79
2021/06/24 00:32:22;;;;;;;3.23;3.00;;;20.40;99.90;;;;;;4977606;28;20470;-78
2021/06/24 00:34:51;;;;;;;2.60;2.40;;;20.40;99.90;;;;;;4974121;28;20470;-79
2021/06/24 00:37:19;;;;;;;2.90;2.70;;;20.40;1.00;;;;;;4985600;28;20472;-80
2021/06/24 00:39:47;;;;;;;2.50;2.30;;;20.50;1.00;;;;;;4963462;28;20450;-79
2021/06/24 00:42:15;;;;;;;2.33;2.20;;;20.50;76.40;;;;;;4970117;28;20534;-79
2021/06/24 00:44:44;;;;;;;2.27;2.17;;;20.50;99.90;;;;;;4974109;28;20446;-79
2021/06/24 00:47:12;;;;;;;2.80;2.53;;;20.30;99.90;;;;;;4974842;28;20447;-80
2021/06/24 00:49:42;;;;;;;1.90;1.80;;;20.30;42.00;;;;;;4970949;28;20487;-79
2021/06/24 00:52:10;;;;;;;1.70;1.60;;;20.20;99.90;;;;;;4976084;28;20479;-79
2021/06/24 00:54:39;;;;;;;1.93;1.40;;;20.20;21.90;;;;;;4976049;28;20479;-79
2021/06/24 00:57:07;;;;;;;1.70;1.60;;;20.20;1.00;;;;;;4975981;28;20491;-80
2021/06/24 00:59:36;;;;;;;1.97;1.87;;;20.20;1.00;;;;;;4976982;28;20498;-79
2021/06/24 01:02:05;;;;;;;2.13;1.60;;;20.20;99.90;;;;;;4975799;28;20482;-79
2021/06/24 01:04:34;;;;;;;1.40;1.30;;;20.20;99.90;;;;;;4977172;28;20473;-79
2021/06/24 01:07:05;;;;;;;1.70;1.20;;;20.20;1.00;;;;;;4977144;28;20963;-79
2021/06/24 01:09:34;;;;;;;1.77;1.67;;;20.30;99.90;;;;;;4972827;28;20489;-79
2021/06/24 01:12:03;;;;;;;1.37;1.27;;;20.30;1.00;;;;;;4974482;28;20566;-79
2021/06/24 01:14:32;;;;;;;1.63;1.53;;;20.30;99.90;;;;;;4975786;28;20824;-79
2021/06/24 01:17:01;;;;;;;1.67;1.57;;;20.20;99.90;;;;;;4972038;28;20451;-79
2021/06/24 01:19:29;;;;;;;1.67;1.57;;;20.40;99.90;;;;;;4974221;28;20505;-78
2021/06/24 01:21:59;;;;;;;1.63;1.20;;;20.40;99.90;;;;;;4973654;28;20466;-79
2021/06/24 01:24:29;;;;;;;1.80;1.53;;;20.40;99.90;;;;;;4971979;28;20484;-79
2021/06/24 01:26:57;;;;;;;1.63;1.33;;;20.50;1.00;;;;;;4973338;28;20447;-79
2021/06/24 01:29:25;;;;;;;1.40;1.30;;;20.50;1.00;;;;;;4971251;28;20463;-79
2021/06/24 01:31:53;;;;;;;1.63;1.17;;;20.40;99.90;;;;;;4972078;28;20483;-79
2021/06/24 01:34:21;;;;;;;1.20;1.20;;;20.30;1.00;;;;;;4973732;28;20503;-79
2021/06/24 01:36:49;;;;;;;2.00;1.40;;;20.30;1.00;;;;;;4971271;28;20455;-79
2021/06/24 01:39:17;;;;;;;1.50;1.13;;;20.30;99.90;;;;;;4981634;28;20458;-79
2021/06/24 01:41:56;;;;;;;1.40;1.30;;;20.40;1.00;;;;;;4987980;28;20502;-78
2021/06/24 01:44:33;;;;;;;1.40;1.30;;;20.50;1.00;;;;;;4977633;28;20458;-80
2021/06/24 01:47:02;;;;;;;1.40;1.30;;;20.50;99.90;;;;;;4976180;28;20451;-79
2021/06/24 01:49:31;;;;;;;1.77;1.30;;;20.60;1.00;;;;;;4974773;28;20471;-78
2021/06/24 01:51:59;;;;;;;1.77;1.40;;;20.60;91.40;;;;;;4978222;28;20483;-79
2021/06/24 01:54:27;;;;;;;1.30;1.20;;;20.60;99.90;;;;;;4977663;28;20452;-79
2021/06/24 01:56:57;;;;;;;2.20;1.10;;;20.60;99.90;;;;;;4975931;28;20458;-79
2021/06/24 01:59:25;;;;;;;3.87;1.60;;;20.60;99.90;;;;;;4978235;28;20514;-79
2021/06/24 02:01:53;;;;;;;1.43;1.30;;;20.60;99.90;;;;;;4973531;28;20467;-79
2021/06/24 02:04:27;;;;;;;1.40;1.30;;;20.60;99.90;;;;;;4962050;28;20456;-79
2021/06/24 02:06:57;;;;;;;1.47;1.20;;;20.60;99.90;;;;;;4972790;28;20466;-79
2021/06/24 02:09:25;;;;;;;1.67;1.20;;;20.60;99.90;;;;;;4978145;28;20665;-78
2021/06/24 02:11:55;;;;;;;1.40;1.30;;;20.60;99.90;;;;;;4970581;28;20490;-79
2021/06/24 02:14:24;;;;;;;1.40;1.30;;;20.60;99.90;;;;;;4975002;28;20482;-79
2021/06/24 02:16:53;;;;;;;1.20;1.10;;;20.50;48.10;;;;;;4971953;28;20954;-78
2021/06/24 02:19:21;;;;;;;1.10;1.10;;;20.60;62.00;;;;;;4988804;28;20447;-79
2021/06/24 02:21:49;;;;;;;1.37;1.27;;;20.50;99.90;;;;;;4972345;28;20470;-79
2021/06/24 02:24:17;;;;;;;1.50;1.40;;;20.50;1.00;;;;;;4972781;28;20970;-80
2021/06/24 02:26:46;;;;;;;1.30;1.20;;;20.50;1.00;;;;;;4974580;28;20517;-81
2021/06/24 02:29:15;;;;;;;2.83;1.40;;;20.50;99.90;;;;;;4976393;28;20455;-80
2021/06/24 02:31:44;;;;;;;1.53;1.30;;;20.50;1.00;;;;;;4974115;28;20517;-80
2021/06/24 02:34:14;;;;;;;1.80;1.53;;;20.40;47.10;;;;;;4971754;28;20455;-80
2021/06/24 02:36:42;;;;;;;1.43;1.33;;;20.40;99.90;;;;;;4966250;28;20451;-79
2021/06/24 02:39:10;;;;;;;1.50;1.40;;;20.50;99.90;;;;;;4979343;28;20482;-80
2021/06/24 02:41:38;;;;;;;1.70;1.10;;;20.40;99.90;;;;;;4971587;28;20479;-80
2021/06/24 02:44:07;;;;;;;3.37;1.27;;;20.40;99.90;;;;;;4971275;28;21157;-79
2021/06/24 02:46:35;;;;;;;2.10;1.50;;;20.40;1.00;;;;;;4975554;28;20459;-79
2021/06/24 02:49:04;;;;;;;1.60;1.27;;;20.40;99.90;;;;;;4979124;28;21020;-79
2021/06/24 02:51:33;;;;;;;1.93;1.30;;;20.40;1.00;;;;;;4965604;28;20999;-80
2021/06/24 02:54:01;;;;;;;1.50;1.40;;;20.40;1.00;;;;;;4972973;28;20455;-80
2021/06/24 02:56:33;;;;;;;1.83;1.17;;;20.30;1.00;;;;;;4973529;28;20529;-79
2021/06/24 02:59:01;;;;;;;1.47;1.37;;;20.30;1.00;;;;;;4977797;28;20885;-79
2021/06/24 03:01:30;;;;;;;2.70;1.37;;;20.30;99.90;;;;;;4976236;28;20474;-80
2021/06/24 03:03:58;;;;;;;1.50;1.40;;;20.20;99.90;;;;;;4973010;28;20454;-80
2021/06/24 03:06:27;;;;;;;1.57;1.10;;;20.10;99.90;;;;;;4970394;28;20463;-80
2021/06/24 03:08:55;;;;;;;1.53;1.27;;;20.00;1.00;;;;;;4984866;28;20540;-80
2021/06/24 03:11:23;;;;;;;1.30;1.20;;;19.90;1.00;;;;;;4975546;28;20515;-80
2021/06/24 03:13:51;;;;;;;1.23;1.13;;;19.90;99.90;;;;;;4970461;28;20459;-81
2021/06/24 03:16:20;;;;;;;2.17;1.37;;;20.00;1.00;;;;;;4962881;28;20966;-81
2021/06/24 03:18:49;;;;;;;1.40;1.30;;;20.00;1.00;;;;;;4983804;28;20454;-79
2021/06/24 03:21:18;;;;;;;1.20;1.00;;;19.90;1.00;;;;;;4975758;28;21003;-80
2021/06/24 03:23:48;;;;;;;1.60;1.30;;;20.20;1.00;;;;;;4982711;28;21059;-80
2021/06/24 03:26:16;;;;;;;1.30;1.20;;;20.10;99.90;;;;;;4966141;28;20518;-80
2021/06/24 03:28:45;;;;;;;1.00;1.00;;;20.00;99.90;;;;;;4985206;28;20512;-80
2021/06/24 03:31:14;;;;;;;1.73;1.30;;;19.90;1.00;;;;;;4963939;28;20547;-80
2021/06/24 03:33:42;;;;;;;5.60;1.30;;;19.90;94.30;;;;;;4977838;28;20454;-80
2021/06/24 03:36:10;;;;;;;1.27;1.17;;;20.00;93.20;;;;;;4977691;28;20810;-80
2021/06/24 03:38:39;;;;;;;1.53;1.20;;;20.10;14.90;;;;;;4978368;28;20470;-80
2021/06/24 03:41:09;;;;;;;1.57;1.23;;;20.20;1.00;;;;;;4988726;28;20498;-80
2021/06/24 03:43:37;;;;;;;1.03;1.03;;;20.20;1.00;;;;;;4955138;28;20513;-80
2021/06/24 03:46:05;;;;;;;1.73;1.33;;;20.20;1.00;;;;;;4961938;28;20494;-80
2021/06/24 03:48:33;;;;;;;1.47;1.10;;;20.30;99.90;;;;;;4957556;28;20456;-80
2021/06/24 03:51:02;;;;;;;1.37;1.27;;;20.30;99.90;;;;;;4963433;28;20484;-81
2021/06/24 03:53:30;;;;;;;2.20;1.20;;;20.20;99.90;;;;;;4955033;28;20507;-80
2021/06/24 03:55:58;;;;;;;0.90;0.90;;;20.20;99.90;;;;;;4968738;28;20463;-80
2021/06/24 03:58:27;;;;;;;1.63;1.53;;;20.10;1.00;;;;;;4972197;28;20463;-80
2021/06/24 04:00:57;;;;;;;4.70;1.30;;;20.10;1.00;;;;;;4967211;28;20478;-80
2021/06/24 04:03:25;;;;;;;2.97;1.20;;;20.10;1.00;;;;;;4963592;28;20463;-80
2021/06/24 04:05:53;;;;;;;1.33;1.00;;;20.10;1.00;;;;;;4972762;28;20463;-80
2021/06/24 04:08:21;;;;;;;1.13;1.03;;;20.00;1.00;;;;;;4971510;28;20459;-80
2021/06/24 04:11:03;;;;;;;1.50;1.40;;;20.10;1.00;;;;;;4969314;28;20550;-80
2021/06/24 04:13:37;;;;;;;1.87;1.03;;;20.20;99.90;;;;;;4978977;28;20447;-80
2021/06/24 04:16:07;;;;;;;1.23;1.17;;;20.30;99.90;;;;;;4972729;28;20557;-80
2021/06/24 04:18:36;;;;;;;1.00;1.00;;;20.20;99.90;;;;;;4981168;28;20498;-80
2021/06/24 04:21:05;;;;;;;1.60;1.40;;;20.20;99.90;;;;;;4970557;28;20479;-79
2021/06/24 04:23:33;;;;;;;1.50;1.40;;;20.30;1.00;;;;;;4970429;28;20514;-80
2021/06/24 04:26:03;;;;;;;3.90;1.27;;;20.30;1.00;;;;;;4974476;28;20451;-80
2021/06/24 04:28:31;;;;;;;2.17;1.20;;;20.30;1.00;;;;;;4971532;28;20451;-80
2021/06/24 04:31:01;;;;;;;1.20;1.10;;;20.30;1.00;;;;;;4973471;28;20478;-79
2021/06/24 04:33:29;;;;;;;1.87;1.37;;;20.30;1.00;;;;;;4972543;28;20462;-77
2021/06/24 04:35:57;;;;;;;4.20;1.40;;;20.30;1.00;;;;;;4972093;28;20451;-79
2021/06/24 04:38:25;;;;;;;1.07;1.00;;;20.30;1.00;;;;;;4970675;28;20458;-79
2021/06/24 04:40:54;;;;;;;1.37;1.20;;;20.40;1.00;;;;;;4973072;28;21024;-79
2021/06/24 04:43:22;;;;;;;2.27;2.07;;;20.40;1.00;;;;;;4972663;28;20459;-79
2021/06/24 04:45:50;;;;;;;1.40;1.30;;;20.40;1.00;;;;;;4972836;28;21162;-79
2021/06/24 04:48:20;;;;;;;1.40;1.30;;;20.40;1.00;;;;;;4970741;28;20479;-80
2021/06/24 04:50:48;;;;;;;1.40;1.30;;;20.40;1.00;;;;;;4972055;28;20510;-80
2021/06/24 04:53:16;;;;;;;1.33;1.23;;;20.40;1.00;;;;;;4970622;28;20526;-79
2021/06/24 04:55:45;;;;;;;1.40;1.27;;;20.40;99.90;;;;;;4971502;28;20814;-79
2021/06/24 04:58:13;;;;;;;1.40;1.30;;;20.40;99.90;;;;;;4969820;28;20535;-79
2021/06/24 05:00:41;;;;;;;1.87;1.10;;;20.40;99.90;;;;;;4972482;28;20489;-81
2021/06/24 05:03:10;;;;;;;1.80;1.20;;;20.40;1.00;;;;;;4971965;28;20462;-80
2021/06/24 05:05:42;;;;;;;1.33;1.20;;;20.50;99.90;;;;;;4972303;28;20538;-79
2021/06/24 05:08:14;;;;;;;1.20;1.10;;;20.50;1.00;;;;;;4966505;28;20458;-79
2021/06/24 05:10:42;;;;;;;2.03;1.23;;;20.50;1.00;;;;;;4972642;28;20493;-80
2021/06/24 05:13:10;;;;;;;1.50;1.40;;;20.50;1.00;;;;;;4970541;28;20508;-80
2021/06/24 05:15:42;;;;;;;1.23;1.13;;;20.50;1.00;;;;;;4971244;28;20451;-80
2021/06/24 05:18:10;;;;;;;3.03;1.50;;;20.60;99.90;;;;;;4972542;28;20451;-79
2021/06/24 05:20:40;;;;;;;1.27;1.17;;;20.60;1.00;;;;;;4972521;28;20474;-79
2021/06/24 05:23:08;;;;;;;4.23;1.80;;;20.60;1.00;;;;;;4969445;28;20525;-77
2021/06/24 05:25:39;;;;;;;1.50;1.40;;;20.50;59.40;;;;;;4968864;28;20451;-79
2021/06/24 05:28:08;;;;;;;1.90;1.50;;;20.40;1.00;;;;;;4971729;28;20464;-79
2021/06/24 05:30:38;;;;;;;2.50;1.70;;;20.40;1.00;;;;;;4970831;28;20474;-79
2021/06/24 05:33:06;;;;;;;2.53;2.33;;;20.40;99.90;;;;;;4977028;28;20565;-78
2021/06/24 05:35:35;;;;;;;1.63;1.53;;;20.50;99.90;;;;;;4977894;28;20465;-80
2021/06/24 05:38:04;;;;;;;2.17;1.97;;;20.50;1.00;;;;;;4985917;28;20462;-80
2021/06/24 05:40:32;;;;;;;2.70;2.50;;;20.50;99.90;;;;;;4984693;28;20491;-80
2021/06/24 05:43:01;;;;;;;1.93;1.83;;;20.50;1.00;;;;;;4987228;28;20789;-80
2021/06/24 05:45:29;;;;;;;2.33;2.23;;;20.60;1.00;;;;;;4971759;28;20461;-79
2021/06/24 05:47:58;;;;;;;1.93;1.83;;;20.60;99.90;;;;;;4990970;28;20461;-78
2021/06/24 05:50:27;;;;;;;2.80;2.30;;;20.60;1.00;;;;;;4982780;28;20486;-80
2021/06/24 05:52:55;;;;;;;2.73;1.97;;;20.60;91.60;;;;;;4974956;28;20475;-80
2021/06/24 05:55:47;;;;;;;3.27;1.93;;;20.70;99.90;;;;;;4972036;28;20456;-78
2021/06/24 05:58:17;;;;;;;2.60;2.17;;;20.70;1.00;;;;;;4969681;28;20498;-79
2021/06/24 06:00:45;;;;;;;2.10;2.00;;;20.80;99.90;;;;;;4968869;28;20529;-78
2021/06/24 06:03:14;;;;;;;3.50;2.20;;;20.80;1.00;;;;;;4970249;28;20541;-78
2021/06/24 06:05:43;;;;;;;2.07;1.90;;;20.80;1.00;;;;;;4968550;28;20459;-77
2021/06/24 06:08:11;;;;;;;2.53;2.33;;;20.80;1.00;;;;;;4964941;28;20463;-76
2021/06/24 06:10:41;;;;;;;1.93;1.83;;;20.90;99.90;;;;;;4969416;28;20483;-78
2021/06/24 06:13:10;;;;;;;1.83;1.73;;;20.90;27.90;;;;;;4968404;28;20933;-80
2021/06/24 06:15:40;;;;;;;2.60;1.90;;;20.80;99.90;;;;;;4964539;28;20514;-79
2021/06/24 06:18:13;;;;;;;2.20;2.00;;;20.90;99.90;;;;;;4967261;28;20460;-78
2021/06/24 06:20:41;;;;;;;2.57;2.37;;;20.90;38.70;;;;;;4965406;28;20473;-76
2021/06/24 06:23:09;;;;;;;4.13;2.80;;;20.90;1.00;;;;;;4968484;28;20450;-79
2021/06/24 06:25:38;;;;;;;2.00;1.77;;;20.90;1.00;;;;;;4969619;28;20451;-78
2021/06/24 06:28:08;;;;;;;2.20;2.00;;;20.90;1.00;;;;;;4964663;28;20455;-78
2021/06/24 06:30:36;;;;;;;2.70;1.70;;;20.90;1.00;;;;;;4971810;28;20475;-79
2021/06/24 06:33:05;;;;;;;2.90;2.20;;;21.00;1.00;;;;;;4972628;28;20565;-78
2021/06/24 06:35:33;;;;;;;1.87;1.73;;;21.00;99.90;;;;;;4973172;28;20816;-78
2021/06/24 06:38:02;;;;;;;2.03;1.93;;;21.00;11.40;;;;;;4973427;28;20443;-78
2021/06/24 06:40:30;;;;;;;2.47;2.23;;;21.10;1.00;;;;;;4973341;28;20459;-78
2021/06/24 06:42:59;;;;;;;1.90;1.80;;;21.10;1.00;;;;;;4973003;28;20937;-79
2021/06/24 06:45:31;;;;;;;2.30;2.20;;;21.10;1.00;;;;;;4971644;28;20482;-78
2021/06/24 06:48:00;;;;;;;2.77;2.00;;;21.10;1.00;;;;;;4959429;28;20956;-79
2021/06/24 06:50:29;;;;;;;2.37;2.27;;;21.10;99.90;;;;;;4971220;28;21045;-78
2021/06/24 06:52:57;;;;;;;1.77;1.67;;;21.20;1.00;;;;;;4969497;28;20467;-77
2021/06/24 06:55:28;;;;;;;2.13;2.03;;;21.20;99.90;;;;;;4972973;28;20784;-79
2021/06/24 06:57:58;;;;;;;2.27;1.93;;;21.20;1.00;;;;;;4987607;28;20545;-79
2021/06/24 07:00:30;;;;;;;2.03;1.93;;;21.20;99.90;;;;;;4974058;28;20447;-77
2021/06/24 07:02:58;;;;;;;2.80;2.60;;;21.20;1.00;;;;;;4971922;28;20832;-78
2021/06/24 07:05:27;;;;;;;1.83;1.73;;;21.20;1.00;;;;;;4972674;28;20447;-78
2021/06/24 07:07:57;;;;;;;2.30;2.20;;;21.30;1.00;;;;;;4968766;28;20446;-77
2021/06/24 07:10:25;;;;;;;2.10;1.97;;;21.40;1.00;;;;;;4973912;28;20449;-78
2021/06/24 07:12:54;;;;;;;2.03;1.93;;;21.40;99.90;;;;;;4964357;28;20506;-78
2021/06/24 07:15:23;;;;;;;2.23;2.03;;;21.50;1.00;;;;;;4970749;28;20509;-79
2021/06/24 07:17:56;;;;;;;2.07;1.97;;;21.40;99.90;;;;;;4967442;28;20543;-80
2021/06/24 07:20:25;;;;;;;2.13;2.00;;;21.40;99.90;;;;;;4970692;28;20463;-79
2021/06/24 07:22:53;;;;;;;5.10;2.40;;;21.40;1.00;;;;;;4971364;28;20701;-79
2021/06/24 07:25:22;;;;;;;2.23;2.03;;;21.40;99.90;;;;;;4962209;28;20454;-79
2021/06/24 07:27:52;;;;;;;2.10;2.00;;;21.40;99.90;;;;;;4963857;28;20491;-80
2021/06/24 07:30:21;;;;;;;2.83;1.80;;;21.50;1.00;;;;;;4963863;28;21059;-80
2021/06/24 07:32:49;;;;;;;2.80;1.97;;;21.50;1.00;;;;;;4970094;28;20475;-81
2021/06/24 07:35:19;;;;;;;2.00;1.90;;;21.50;1.00;;;;;;4971811;28;20452;-79
2021/06/24 07:37:49;;;;;;;2.50;2.30;;;21.60;99.90;;;;;;4963435;28;20496;-80
2021/06/24 07:40:18;;;;;;;2.33;2.13;;;21.60;1.00;;;;;;4971791;28;20453;-79
2021/06/24 07:42:47;;;;;;;2.13;2.03;;;21.50;1.00;;;;;;4967673;28;20456;-80
2021/06/24 07:45:16;;;;;;;2.20;2.00;;;21.60;99.90;;;;;;4970028;28;20510;-80
2021/06/24 07:47:46;;;;;;;2.40;2.20;;;21.50;99.90;;;;;;4970493;28;20478;-80
2021/06/24 07:50:15;;;;;;;2.00;1.90;;;21.50;1.00;;;;;;4969463;28;20532;-81
2021/06/24 07:52:44;;;;;;;2.13;1.83;;;21.60;1.00;;;;;;4964848;28;20464;-80
2021/06/24 07:55:14;;;;;;;3.37;2.07;;;21.70;1.00;;;;;;4971653;28;20883;-80
2021/06/24 07:57:43;;;;;;;3.50;1.70;;;21.70;1.00;;;;;;4968510;28;20458;-80
2021/06/24 08:00:12;;;;;;;2.00;1.90;;;21.70;99.90;;;;;;4964749;28;20471;-80
2021/06/24 08:02:40;;;;;;;2.10;2.00;;;21.60;99.90;;;;;;4972039;28;20470;-80
2021/06/24 08:05:09;;;;;;;1.90;1.80;;;21.60;99.90;;;;;;4970953;28;20460;-80
2021/06/24 08:07:40;;;;;;;1.50;1.40;;;21.50;99.90;;;;;;4970150;28;20455;-79
2021/06/24 08:10:11;;;;;;;1.60;1.50;;;21.50;99.90;;;;;;4970357;28;20587;-79
2021/06/24 08:12:40;;;;;;;3.50;2.53;;;21.60;99.90;;;;;;4977155;28;20479;-79
2021/06/24 08:15:10;;;;;;;1.77;1.67;;;21.60;99.90;;;;;;4967925;28;20484;-82
2021/06/24 08:17:38;;;;;;;2.10;2.00;;;21.70;99.90;;;;;;4970617;28;21035;-79
2021/06/24 08:20:09;;;;;;;2.47;2.27;;;21.70;99.90;;;;;;4963851;28;20447;-80
2021/06/24 08:22:38;;;;;;;2.17;1.77;;;21.80;1.00;;;;;;4970332;28;20561;-79
2021/06/24 08:25:09;;;;;;;2.20;1.70;;;21.90;1.00;;;;;;4969627;28;20950;-80
2021/06/24 08:27:38;;;;;;;2.77;1.60;;;22.00;1.00;;;;;;4970199;28;20514;-80
2021/06/24 08:30:08;;;;;;;1.63;1.50;;;22.10;99.90;;;;;;4969751;28;20452;-79
2021/06/24 08:32:37;;;;;;;2.00;1.90;;;22.10;99.90;;;;;;4972719;28;20475;-79
2021/06/24 08:35:08;;;;;;;2.80;1.60;;;22.10;99.90;;;;;;4990487;28;20985;-80
2021/06/24 08:37:36;;;;;;;1.93;1.73;;;22.10;99.90;;;;;;4969191;28;20531;-80
2021/06/24 08:40:06;;;;;;;1.50;1.40;;;22.10;6.50;;;;;;4966655;28;20465;-80
2021/06/24 08:42:36;;;;;;;1.43;1.33;;;22.10;38.60;;;;;;4966115;28;20969;-80
2021/06/24 08:45:07;;;;;;;1.53;1.43;;;22.10;1.00;;;;;;4968441;28;21183;-80
2021/06/24 08:47:36;;;;;;;2.37;1.77;;;22.10;1.00;;;;;;4969651;28;21040;-79
2021/06/24 08:50:05;;;;;;;1.50;1.40;;;22.20;1.00;;;;;;4966011;28;20451;-79
2021/06/24 08:52:33;;;;;;;1.77;1.67;;;22.20;1.00;;;;;;4971052;28;21032;-78
2021/06/24 08:55:02;;;;;;;7.17;2.90;;;22.20;1.00;;;;;;4969531;28;21034;-78
2021/06/24 08:57:33;;;;;;;1.67;1.57;;;22.30;1.00;;;;;;4971808;28;20892;-79
2021/06/24 09:00:04;;;;;;;1.60;1.50;;;22.50;1.00;;;;;;4969495;28;21048;-80
2021/06/24 09:02:40;;;;;;;2.63;1.80;;;22.50;1.00;;;;;;4971108;28;20484;-79
2021/06/24 09:05:11;;;;;;;1.50;1.40;;;22.30;1.00;;;;;;4969196;28;20472;-78
2021/06/24 09:07:49;;;;;;;1.97;1.37;;;22.30;1.00;;;;;;4972402;28;20450;-78
2021/06/24 09:10:21;;;;;;;1.43;1.33;;;22.20;1.00;;;;;;4965096;28;21109;-79
2021/06/24 09:12:55;;;;;;;1.87;1.30;;;22.20;1.00;;;;;;4984837;28;20450;-78
2021/06/24 09:15:26;;;;;;;1.43;1.30;;;22.30;1.00;;;;;;4958109;28;20995;-78
2021/06/24 09:17:55;;;;;;;2.70;1.50;;;22.30;1.00;;;;;;4970812;28;21146;-78
2021/06/24 09:20:32;;;;;;;1.60;1.50;;;22.30;1.00;;;;;;4971866;28;20967;-80
2021/06/24 09:23:09;;;;;;;1.60;1.50;;;22.30;1.00;;;;;;4969663;28;20485;-81
2021/06/24 09:25:39;;;;;;;1.57;1.47;;;22.30;1.00;;;;;;4966497;28;20456;-80
2021/06/24 09:28:08;;;;;;;1.70;1.30;;;22.30;1.00;;;;;;4969642;28;20434;-79
2021/06/24 09:30:40;;;;;;;1.57;1.33;;;22.20;1.00;;;;;;4969007;28;20584;-80
2021/06/24 09:33:10;;;;;;;1.40;1.30;;;22.30;1.00;;;;;;4954048;28;20539;-78
2021/06/24 09:35:40;;;;;;;5.33;1.53;;;22.40;1.00;;;;;;4962533;28;21176;-79
2021/06/24 09:38:10;;;;;;;1.40;1.30;;;22.40;1.00;;;;;;4966137;28;20455;-80
2021/06/24 09:40:44;;;;;;;1.80;1.10;;;22.40;1.00;;;;;;4969149;28;20592;-79
2021/06/24 09:43:31;;;;;;;1.50;1.40;;;22.40;1.00;;;;;;4965427;28;20545;-80
2021/06/24 09:46:11;;;;;;;2.03;1.30;;;22.50;1.00;;;;;;4970284;28;20478;-79
2021/06/24 09:48:41;;;;;;;1.40;1.30;;;22.60;1.00;;;;;;4955571;28;20948;-77
2021/06/24 09:51:15;;;;;;;1.40;1.20;;;22.60;1.00;;;;;;4969881;28;20520;-77
2021/06/24 09:53:55;;;;;;;1.50;1.40;;;22.60;1.00;;;;;;4962221;28;20956;-78
2021/06/24 09:56:26;;;;;;;1.50;1.13;;;22.60;1.00;;;;;;4968675;28;20906;-77
2021/06/24 09:58:56;;;;;;;1.27;1.17;;;22.70;1.00;;;;;;4969850;28;20471;-78
2021/06/24 10:01:30;;;;;;;1.40;1.30;;;22.70;1.00;;;;;;4970681;28;20478;-78
2021/06/24 10:04:01;;;;;;;1.73;1.30;;;22.60;1.00;;;;;;4973094;28;20509;-78
2021/06/24 10:06:29;;;;;;;1.40;1.30;;;22.60;1.00;;;;;;4973774;28;20450;-78
2021/06/24 10:08:58;;;;;;;1.70;1.60;;;22.60;1.00;;;;;;4970294;28;20529;-79
2021/06/24 10:11:28;;;;;;;2.03;1.77;;;22.50;1.00;;;;;;4974394;28;20509;-78
2021/06/24 10:13:56;;;;;;;1.23;1.13;;;22.50;1.00;;;;;;4967460;28;20459;-78
2021/06/24 10:16:30;;;;;;;3.00;1.30;;;22.40;1.00;;;;;;4973755;28;20485;-78
2021/06/24 10:19:00;;;;;;;1.30;1.20;;;22.40;1.00;;;;;;4968139;28;20465;-78
2021/06/24 10:21:29;;;;;;;1.17;1.07;;;22.40;1.00;;;;;;4969470;28;20466;-78
2021/06/24 10:24:02;;;;;;;1.37;1.27;;;22.40;1.00;;;;;;4973528;28;20454;-78
2021/06/24 10:26:31;;;;;;;1.50;1.40;;;22.40;1.00;;;;;;4973080;28;20469;-78
2021/06/24 10:29:20;;;;;;;1.27;1.17;;;22.30;1.00;;;;;;4973208;28;20470;-78
2021/06/24 10:31:51;;;;;;;1.30;1.20;;;22.30;1.00;;;;;;4965316;28;20495;-79
2021/06/24 10:34:21;;;;;;;1.23;1.13;;;22.20;1.00;;;;;;4974417;28;20862;-80
2021/06/24 10:37:11;;;;;;;0.90;0.80;;;22.30;1.00;;;;;;4972936;28;20460;-78
2021/06/24 10:39:43;;;;;;;1.00;1.00;;;22.30;1.00;;;;;;4968490;28;20450;-77
2021/06/24 10:42:13;;;;;;;1.00;0.90;;;22.30;1.00;;;;;;4965543;28;20508;-77
2021/06/24 10:44:46;;;;;;;1.00;1.00;;;22.30;1.00;;;;;;4972794;28;21001;-77
2021/06/24 10:47:27;;;;;;;1.60;1.10;;;22.40;1.00;;;;;;4967772;28;20667;-78
2021/06/24 10:49:55;;;;;;;1.27;1.20;;;22.50;1.00;;;;;;4969512;28;20474;-78
2021/06/24 10:52:27;;;;;;;2.00;1.10;;;22.50;1.00;;;;;;4970489;28;20491;-78
2021/06/24 10:54:56;;;;;;;1.70;1.10;;;22.60;1.00;;;;;;4973255;28;20494;-78
2021/06/24 10:57:32;;;;;;;1.83;1.00;;;22.70;1.00;;;;;;4971786;28;20530;-77
2021/06/24 11:00:34;;;;;;;1.47;1.37;;;22.80;1.00;;;;;;4971901;28;20542;-78
2021/06/24 11:03:05;;;;;;;1.13;1.03;;;22.80;1.00;;;;;;4969383;28;20482;-77
2021/06/24 11:05:36;;;;;;;1.00;1.00;;;22.80;1.00;;;;;;4971732;28;20486;-76
2021/06/24 11:08:12;;;;;;;1.30;1.20;;;22.80;1.00;;;;;;4973256;28;20961;-78
2021/06/24 11:10:56;;;;;;;1.00;0.90;;;22.80;99.90;;;;;;4972972;28;20471;-79
2021/06/24 11:13:45;;;;;;;1.17;1.10;;;22.80;1.00;;;;;;4969309;28;20466;-79
2021/06/24 11:16:37;;;;;;;1.53;1.10;;;22.90;99.90;;;;;;4970407;28;20467;-79
2021/06/24 11:19:10;;;;;;;1.23;1.13;;;22.90;99.90;;;;;;4949611;28;20471;-80
2021/06/24 11:21:55;;;;;;;0.90;0.90;;;22.90;99.90;;;;;;4969352;28;20550;-79
2021/06/24 11:24:28;;;;;;;5.43;0.80;;;22.90;99.90;;;;;;4967299;28;20893;-79
2021/06/24 11:26:58;;;;;;;1.10;0.80;;;22.90;99.90;;;;;;4959710;28;20454;-79
2021/06/24 11:32:17;;;;;;;0.70;0.70;;;22.90;99.90;;;;;;4967127;28;20581;-79
2021/06/24 11:34:57;;;;;;;1.70;0.80;;;23.10;99.90;;;;;;4972114;28;20453;-77
2021/06/24 11:37:28;;;;;;;0.80;0.80;;;23.10;99.90;;;;;;4970364;28;20479;-77
2021/06/24 11:39:59;;;;;;;1.40;0.80;;;23.10;99.90;;;;;;4970201;28;20458;-78
2021/06/24 11:42:33;;;;;;;0.80;0.80;;;23.10;99.90;;;;;;4953081;29;20835;-79
2021/06/24 11:45:03;;;;;;;0.80;0.80;;;23.00;99.90;;;;;;4953713;28;20822;-79
2021/06/24 11:47:34;;;;;;;0.80;0.80;;;22.90;99.90;;;;;;4970441;28;20523;-78
2021/06/24 12:04:18;;;;;;;0.80;0.80;;;22.70;99.90;;;;;;4969316;28;20470;-78
2021/06/24 12:06:52;;;;;;;2.00;1.00;;;22.80;99.90;;;;;;4969835;28;21158;-79
2021/06/24 12:09:23;;;;;;;1.20;0.80;;;22.90;99.90;;;;;;4968187;28;21012;-78
2021/06/24 12:11:57;;;;;;;1.80;0.80;;;22.90;99.90;;;;;;4970318;28;20845;-78
2021/06/24 12:14:27;;;;;;;1.23;0.80;;;23.10;99.90;;;;;;4969832;28;20447;-79
2021/06/24 12:17:07;;;;;;;1.20;0.80;;;23.10;99.90;;;;;;4967645;28;20467;-79
2021/06/24 12:20:00;;;;;;;0.80;0.70;;;23.20;99.90;;;;;;4967794;28;20466;-79
2021/06/24 12:22:45;;;;;;;0.60;0.60;;;23.30;99.90;;;;;;4967141;28;21021;-78
2021/06/24 12:25:15;;;;;;;0.80;0.80;;;23.30;99.90;;;;;;4970933;28;20462;-78
2021/06/24 12:27:47;;;;;;;0.60;0.60;;;23.30;99.90;;;;;;4969896;28;20454;-80
2021/06/24 12:30:20;;;;;;;0.60;0.60;;;23.30;99.90;;;;;;4965113;28;20564;-80
2021/06/24 12:32:51;;;;;;;0.60;0.60;;;23.30;99.90;;;;;;4968519;28;20439;-78
2021/06/24 12:35:24;;;;;;;0.80;0.80;;;23.30;99.90;;;;;;4966875;28;20451;-77
2021/06/24 12:37:55;;;;;;;0.60;0.60;;;23.40;99.90;;;;;;4967513;28;20455;-78
2021/06/24 12:40:26;;;;;;;0.50;0.50;;;23.40;99.90;;;;;;4970377;28;20463;-78
2021/06/24 12:42:56;;;;;;;0.60;0.60;;;23.40;99.90;;;;;;4964794;28;21051;-79
2021/06/24 12:45:44;;;;;;;0.60;0.60;;;23.40;99.90;;;;;;4971392;28;20998;-78
2021/06/24 12:48:26;;;;;;;0.80;0.80;;;23.60;99.90;;;;;;4968563;28;20470;-78
2021/06/24 12:50:55;;;;;;;0.60;0.60;;;23.70;99.90;;;;;;4971356;28;20471;-79
2021/06/24 12:53:36;;;;;;;0.80;0.60;;;23.70;99.90;;;;;;4972751;28;20834;-80
2021/06/24 12:56:06;;;;;;;0.80;0.80;;;23.90;99.90;;;;;;4973496;28;20483;-81
2021/06/24 12:58:36;;;;;;;0.80;0.80;;;24.00;99.90;;;;;;4959192;28;20518;-79
2021/06/24 13:01:11;;;;;;;0.70;0.70;;;24.00;99.90;;;;;;4968112;28;20475;-81
2021/06/24 13:03:47;;;;;;;1.00;0.80;;;23.90;99.90;;;;;;4953610;28;20447;-81
2021/06/24 13:06:19;;;;;;;0.83;0.83;;;23.90;99.90;;;;;;4969252;28;20455;-78
2021/06/24 13:09:00;;;;;;;1.67;0.93;;;23.90;99.90;;;;;;4961246;28;20513;-80
2021/06/24 13:11:31;;;;;;;1.67;1.20;;;23.90;99.90;;;;;;4967928;28;20566;-82
2021/06/24 13:14:01;;;;;;;1.77;1.00;;;23.80;99.90;;;;;;4972088;28;20443;-82
2021/06/24 13:16:40;;;;;;;1.10;1.00;;;23.80;99.90;;;;;;4968528;28;20464;-81
2021/06/24 13:19:10;;;;;;;1.13;1.03;;;23.70;99.90;;;;;;4969465;28;20599;-82
2021/06/24 13:21:55;;;;;;;1.17;1.00;;;23.60;99.90;;;;;;4972251;28;20478;-81
2021/06/24 13:24:27;;;;;;;1.53;0.87;;;23.60;99.90;;;;;;4965684;28;20498;-81
2021/06/24 13:27:07;;;;;;;0.70;0.70;;;23.50;99.90;;;;;;4971129;28;20459;-80